| time (UTC) | temp C | wind direction | speed KPH | gust KPH | rain 1hr cm | rain 24hr cm | rain mn cm | humidity % | barometer mb |
| 20260906223052 | 16 | 0 | 0.0 | 4.8 | 0.00 | 1.32 | 1.32 | 85 | 1015.4 |
| 20260906221558 | 16 | 169 | 0.0 | 6.4 | 0.00 | 1.32 | 1.32 | 85 | 1015.4 |
| 20260906220050 | 16 | 199 | 1.6 | 4.8 | 0.00 | 1.32 | 1.32 | 85 | 1015.6 |
| 20260906214553 | 15 | 253 | 1.6 | 6.4 | 0.00 | 1.32 | 1.32 | 87 | 1015.6 |
| 20260906213058 | 15 | 240 | 3.2 | 6.4 | 0.00 | 1.32 | 1.32 | 88 | 1015.6 |
| 20260906211555 | 15 | 183 | 1.6 | 8.0 | 0.00 | 1.32 | 1.32 | 89 | 1015.9 |
| 20260906204559 | 15 | 0 | 0.0 | 8.0 | 0.00 | 1.32 | 1.32 | 93 | 1016.0 |
| 20260906203053 | 14 | 142 | 1.6 | 9.7 | 0.00 | 1.32 | 1.32 | 93 | 1016.0 |
| 20260906201602 | 15 | 229 | 1.6 | 11.3 | 0.00 | 1.32 | 1.32 | 93 | 1015.9 |
| 20260906200059 | 14 | 217 | 1.6 | 9.7 | 0.00 | 1.32 | 1.32 | 94 | 1016.1 |
| 20260906194549 | 14 | 0 | 1.6 | 8.0 | 0.13 | 1.35 | 1.32 | 95 | 1016.2 |
| 20260906193049 | 14 | 150 | 1.6 | 8.0 | 0.66 | 1.35 | 1.32 | 96 | 1016.3 |
| 20260906191558 | 13 | 0 | 3.2 | 9.7 | 0.71 | 1.35 | 1.32 | 96 | 1016.4 |
| 20260906190138 | 13 | 138 | 1.6 | 4.8 | 0.71 | 1.35 | 1.32 | 96 | 1016.5 |
| 20260906184551 | 13 | 148 | 0.0 | 4.8 | 0.56 | 1.22 | 1.17 | 96 | 1016.9 |
| 20260906183057 | 13 | 89 | 1.6 | 8.0 | 0.15 | 0.71 | 0.64 | 96 | 1018.2 |
| 20260906181603 | 13 | 154 | 3.2 | 8.0 | 0.15 | 0.66 | 0.61 | 95 | 1016.8 |
| 20260906180053 | 13 | 157 | 1.6 | 11.3 | 0.15 | 0.66 | 0.61 | 96 | 1016.4 |
| 20260906174549 | 13 | 163 | 0.0 | 4.8 | 0.15 | 0.64 | 0.58 | 96 | 1017.5 |
| 20260906173054 | 13 | 167 | 0.0 | 1.6 | 0.08 | 0.56 | 0.48 | 96 | 1018.1 |
| 20260906171556 | 13 | 0 | 0.0 | 4.8 | 0.08 | 0.51 | 0.46 | 96 | 1018.3 |
| 20260906170052 | 13 | 146 | 1.6 | 4.8 | 0.08 | 0.51 | 0.46 | 96 | 1018.1 |
| 20260906164549 | 13 | 134 | 0.0 | 8.0 | 0.10 | 0.53 | 0.43 | 96 | 1017.2 |
| 20260906163049 | 13 | 151 | 3.2 | 6.4 | 0.08 | 0.51 | 0.41 | 95 | 1018.6 |
| 20260906161554 | 13 | 0 | 1.6 | 6.4 | 0.05 | 0.46 | 0.36 | 95 | 1019.0 |
| 20260906160055 | 13 | 0 | 0.0 | 3.2 | 0.03 | 0.46 | 0.36 | 95 | 1018.8 |
| 20260906154549 | 13 | 135 | 0.0 | 4.8 | 0.00 | 0.51 | 0.30 | 95 | 1018.4 |
| 20260906153048 | 13 | 124 | 3.2 | 9.7 | 0.00 | 0.51 | 0.30 | 95 | 1017.9 |
| 20260906151559 | 13 | 0 | 0.0 | 6.4 | 0.00 | 0.51 | 0.30 | 95 | 1017.8 |
| 20260906150049 | 13 | 0 | 1.6 | 4.8 | 0.00 | 0.51 | 0.30 | 95 | 1018.0 |
| 20260906144548 | 13 | 0 | 0.0 | 3.2 | 0.00 | 0.51 | 0.30 | 95 | 1018.2 |
| 20260906143046 | 13 | 136 | 1.6 | 4.8 | 0.00 | 0.51 | 0.30 | 95 | 1018.5 |
| 20260906141553 | 13 | 129 | 0.0 | 3.2 | 0.00 | 0.51 | 0.30 | 95 | 1018.6 |
| 20260906140051 | 13 | 284 | 0.0 | 6.4 | 0.00 | 0.51 | 0.30 | 95 | 1018.6 |
| 20260906134557 | 13 | 212 | 1.6 | 9.7 | 0.00 | 0.51 | 0.30 | 95 | 1018.1 |
| 20260906133105 | 13 | 236 | 0.0 | 11.3 | 0.00 | 0.51 | 0.30 | 95 | 1018.1 |
| 20260906131600 | 13 | 276 | 6.4 | 14.5 | 0.00 | 0.51 | 0.30 | 96 | 1018.2 |
| 20260906130112 | 12 | 285 | 6.4 | 11.3 | 0.00 | 0.51 | 0.30 | 96 | 1018.1 |
| 20260906124553 | 12 | 0 | 1.6 | 9.7 | 0.00 | 0.48 | 0.28 | 96 | 1018.0 |
| 20260906123049 | 12 | 264 | 1.6 | 8.0 | 0.00 | 0.48 | 0.28 | 96 | 1018.2 |
| 20260906121549 | 12 | 299 | 0.0 | 6.4 | 0.00 | 0.48 | 0.28 | 96 | 1018.4 |
| 20260906120100 | 12 | 229 | 0.0 | 9.7 | 0.00 | 0.48 | 0.28 | 96 | 1018.2 |
| 20260906114551 | 12 | 189 | 1.6 | 6.4 | 0.00 | 0.46 | 0.28 | 96 | 1018.5 |
| 20260906113049 | 13 | 160 | 0.0 | 4.8 | 0.00 | 0.46 | 0.28 | 96 | 1018.8 |
| 20260906111554 | 13 | 136 | 0.0 | 3.2 | 0.00 | 0.46 | 0.28 | 96 | 1019.1 |
| 20260906110100 | 13 | 0 | 0.0 | 0.0 | 0.00 | 0.46 | 0.28 | 95 | 1019.6 |
| 20260906104552 | 13 | 0 | 0.0 | 3.2 | 0.03 | 0.46 | 0.28 | 95 | 1019.6 |
| 20260906103048 | 13 | 119 | 0.0 | 3.2 | 0.03 | 0.46 | 0.28 | 95 | 1019.6 |
| 20260906101547 | 13 | 127 | 0.0 | 1.6 | 0.03 | 0.46 | 0.28 | 95 | 1020.2 |
| 20260906100055 | 13 | 0 | 0.0 | 0.0 | 0.00 | 0.46 | 0.25 | 95 | 1020.2 |
| 20260906094604 | 13 | 0 | 0.0 | 0.0 | 0.00 | 0.43 | 0.23 | 95 | 1020.0 |
| 20260906093100 | 13 | 0 | 0.0 | 1.6 | 0.00 | 0.43 | 0.23 | 95 | 1019.7 |
| 20260906091556 | 13 | 139 | 0.0 | 1.6 | 0.00 | 0.43 | 0.23 | 95 | 1019.8 |
| 20260906090133 | 13 | 0 | 0.0 | 1.6 | 0.03 | 0.43 | 0.23 | 95 | 1020.0 |
| 20260906084611 | 13 | 0 | 0.0 | 1.6 | 0.05 | 0.43 | 0.23 | 95 | 1020.1 |
| 20260906083049 | 13 | 0 | 0.0 | 0.0 | 0.05 | 0.43 | 0.23 | 95 | 1019.9 |
| 20260906081549 | 13 | 140 | 0.0 | 3.2 | 0.08 | 0.43 | 0.23 | 94 | 1020.0 |
| 20260906080105 | 13 | 94 | 0.0 | 12.9 | 0.15 | 0.38 | 0.18 | 94 | 1020.8 |
| 20260906074554 | 13 | 0 | 0.0 | 6.4 | 0.18 | 0.36 | 0.18 | 94 | 1021.2 |
| 20260906073049 | 13 | 0 | 0.0 | 8.0 | 0.18 | 0.36 | 0.18 | 93 | 1020.5 |
| 20260906071548 | 13 | 159 | 3.2 | 8.0 | 0.13 | 0.33 | 0.13 | 92 | 1019.6 |
| 20260906070055 | 13 | 58 | 1.6 | 14.5 | 0.03 | 0.23 | 0.03 | 90 | 1021.8 |
| 20260906064549 | 13 | 48 | 1.6 | 8.0 | 0.00 | 0.18 | 0.00 | 88 | 1021.3 |
| 20260906063100 | 13 | 0 | 0.0 | 3.2 | 0.00 | 0.18 | 0.00 | 88 | 1019.7 |
| 20260906061559 | 13 | 203 | 0.0 | 6.4 | 0.00 | 0.18 | 0.00 | 88 | 1019.3 |
| 20260906060057 | 13 | 122 | 0.0 | 1.6 | 0.00 | 0.18 | 0.00 | 87 | 1019.9 |
| 20260906054556 | 13 | 0 | 0.0 | 4.8 | 0.00 | 0.18 | 0.18 | 86 | 1020.5 |
| 20260906053105 | 13 | 58 | 0.0 | 4.8 | 0.00 | 0.18 | 0.18 | 85 | 1020.5 |
| 20260906051558 | 14 | 0 | 0.0 | 0.0 | 0.00 | 0.18 | 0.18 | 84 | 1020.5 |
| 20260906050055 | 14 | 0 | 0.0 | 0.0 | 0.00 | 0.18 | 0.18 | 82 | 1020.2 |
| 20260906044549 | 14 | 0 | 0.0 | 0.0 | 0.00 | 0.18 | 0.18 | 82 | 1020.1 |
| 20260906043049 | 15 | 0 | 0.0 | 0.0 | 0.00 | 0.18 | 0.18 | 82 | 1019.7 |
| 20260906041558 | 15 | 0 | 0.0 | 0.0 | 0.00 | 0.18 | 0.18 | 82 | 1019.6 |
| 20260906040105 | 15 | 0 | 0.0 | 0.0 | 0.00 | 0.18 | 0.18 | 82 | 1019.4 |
| 20260906034549 | 15 | 0 | 0.0 | 0.0 | 0.00 | 0.18 | 0.18 | 82 | 1019.6 |
| 20260906033059 | 15 | 0 | 0.0 | 0.0 | 0.00 | 0.18 | 0.18 | 80 | 1019.6 |
| 20260906031553 | 15 | 0 | 0.0 | 0.0 | 0.00 | 0.18 | 0.18 | 79 | 1019.4 |
| 20260906030053 | 16 | 0 | 0.0 | 0.0 | 0.00 | 0.18 | 0.18 | 79 | 1019.4 |
| 20260906024609 | 16 | 0 | 0.0 | 0.0 | 0.00 | 0.18 | 0.18 | 77 | 1019.2 |
| 20260906023054 | 16 | 0 | 0.0 | 0.0 | 0.00 | 0.18 | 0.18 | 76 | 1018.9 |
| 20260906021556 | 17 | 0 | 0.0 | 0.0 | 0.00 | 0.18 | 0.18 | 75 | 1018.8 |
| 20260906020055 | 17 | 0 | 0.0 | 0.0 | 0.00 | 0.18 | 0.18 | 73 | 1018.8 |
| 20260906014552 | 18 | 0 | 0.0 | 0.0 | 0.00 | 0.18 | 0.18 | 71 | 1018.7 |
| 20260906013058 | 18 | 0 | 0.0 | 0.0 | 0.00 | 0.18 | 0.18 | 71 | 1018.6 |
| 20260906011557 | 18 | 0 | 0.0 | 0.0 | 0.00 | 0.18 | 0.18 | 69 | 1018.6 |
| 20260906010122 | 18 | 0 | 0.0 | 1.6 | 0.00 | 0.18 | 0.18 | 69 | 1018.7 |
| 20260906004553 | 19 | 0 | 0.0 | 1.6 | 0.00 | 0.18 | 0.18 | 69 | 1018.8 |
| 20260906003048 | 19 | 131 | 0.0 | 3.2 | 0.00 | 0.18 | 0.18 | 69 | 1018.7 |
| 20260906001606 | 19 | 0 | 0.0 | 3.2 | 0.00 | 0.18 | 0.18 | 69 | 1018.8 |
| 20260906000057 | 19 | 0 | 0.0 | 4.8 | 0.00 | 0.18 | 0.18 | 71 | 1018.8 |
| 20260905234551 | 19 | 0 | 0.0 | 6.4 | 0.00 | 0.18 | 0.18 | 71 | 1018.8 |
| 20260905233048 | 19 | 0 | 0.0 | 0.0 | 0.00 | 0.18 | 0.18 | 71 | 1018.8 |
| 20260905231551 | 19 | 0 | 0.0 | 4.8 | 0.00 | 0.18 | 0.18 | 68 | 1018.7 |
| 20260905230108 | 20 | 120 | 1.6 | 4.8 | 0.00 | 0.18 | 0.18 | 69 | 1018.8 |
| 20260905224551 | 20 | 125 | 0.0 | 3.2 | 0.00 | 0.18 | 0.18 | 69 | 1018.7 |